sensor_id;sensor_type;location;lat;lon;timestamp;temperature;humidity
19930;DHT22;10127;47.780;9.606;2022-10-16T00:01:15;13.80;99.90
19930;DHT22;10127;47.780;9.606;2022-10-16T00:03:41;13.70;99.90
19930;DHT22;10127;47.780;9.606;2022-10-16T00:06:08;13.60;99.90
19930;DHT22;10127;47.780;9.606;2022-10-16T00:08:35;13.60;99.90
19930;DHT22;10127;47.780;9.606;2022-10-16T00:11:07;13.60;99.90
19930;DHT22;10127;47.780;9.606;2022-10-16T00:13:34;13.70;99.90
19930;DHT22;10127;47.780;9.606;2022-10-16T00:16:01;13.70;99.90
19930;DHT22;10127;47.780;9.606;2022-10-16T00:18:28;13.50;99.90
19930;DHT22;10127;47.780;9.606;2022-10-16T00:20:53;13.50;99.90
19930;DHT22;10127;47.780;9.606;2022-10-16T00:23:19;13.50;99.90
19930;DHT22;10127;47.780;9.606;2022-10-16T00:25:53;13.50;99.90
19930;DHT22;10127;47.780;9.606;2022-10-16T00:28:19;13.50;99.90
19930;DHT22;10127;47.780;9.606;2022-10-16T00:30:45;13.60;99.90
19930;DHT22;10127;47.780;9.606;2022-10-16T00:33:10;13.60;99.90
19930;DHT22;10127;47.780;9.606;2022-10-16T00:35:36;13.70;99.90
19930;DHT22;10127;47.780;9.606;2022-10-16T00:38:01;13.70;99.90
19930;DHT22;10127;47.780;9.606;2022-10-16T00:40:27;13.60;99.90
19930;DHT22;10127;47.780;9.606;2022-10-16T00:42:53;13.70;99.90
19930;DHT22;10127;47.780;9.606;2022-10-16T00:45:19;13.70;99.90
19930;DHT22;10127;47.780;9.606;2022-10-16T00:47:45;13.70;99.90
19930;DHT22;10127;47.780;9.606;2022-10-16T00:50:28;13.80;99.90
19930;DHT22;10127;47.780;9.606;2022-10-16T00:52:56;13.80;99.90
19930;DHT22;10127;47.780;9.606;2022-10-16T00:55:22;13.80;99.90
19930;DHT22;10127;47.780;9.606;2022-10-16T00:57:50;13.80;99.90
19930;DHT22;10127;47.780;9.606;2022-10-16T01:00:23;13.80;99.90
19930;DHT22;10127;47.780;9.606;2022-10-16T01:02:58;13.80;99.90
19930;DHT22;10127;47.780;9.606;2022-10-16T01:05:32;13.90;99.90
19930;DHT22;10127;47.780;9.606;2022-10-16T01:10:57;13.60;99.90
19930;DHT22;10127;47.780;9.606;2022-10-16T01:13:37;13.50;99.90
19930;DHT22;10127;47.780;9.606;2022-10-16T01:16:21;13.50;99.90
19930;DHT22;10127;47.780;9.606;2022-10-16T01:19:09;13.60;99.90
19930;DHT22;10127;47.780;9.606;2022-10-16T01:21:41;13.70;99.90
19930;DHT22;10127;47.780;9.606;2022-10-16T01:27:21;13.80;99.90
19930;DHT22;10127;47.780;9.606;2022-10-16T01:30:23;13.90;99.90
19930;DHT22;10127;47.780;9.606;2022-10-16T01:35:28;14.00;99.90
19930;DHT22;10127;47.780;9.606;2022-10-16T01:40:34;13.80;99.90
19930;DHT22;10127;47.780;9.606;2022-10-16T01:43:24;13.80;99.90
19930;DHT22;10127;47.780;9.606;2022-10-16T01:45:52;13.90;99.90
19930;DHT22;10127;47.780;9.606;2022-10-16T01:48:19;13.90;99.90
19930;DHT22;10127;47.780;9.606;2022-10-16T01:50:53;14.00;99.90
19930;DHT22;10127;47.780;9.606;2022-10-16T01:53:20;14.00;99.90
19930;DHT22;10127;47.780;9.606;2022-10-16T01:55:48;14.00;99.90
19930;DHT22;10127;47.780;9.606;2022-10-16T01:58:15;14.00;99.90
19930;DHT22;10127;47.780;9.606;2022-10-16T02:00:43;13.90;99.90
19930;DHT22;10127;47.780;9.606;2022-10-16T02:03:11;13.80;99.90
19930;DHT22;10127;47.780;9.606;2022-10-16T02:05:45;13.90;99.90
19930;DHT22;10127;47.780;9.606;2022-10-16T02:08:11;14.00;99.90
19930;DHT22;10127;47.780;9.606;2022-10-16T02:10:38;13.90;99.90
19930;DHT22;10127;47.780;9.606;2022-10-16T02:15:39;14.00;99.90
19930;DHT22;10127;47.780;9.606;2022-10-16T02:18:06;13.80;99.90
19930;DHT22;10127;47.780;9.606;2022-10-16T02:20:43;13.90;99.90
19930;DHT22;10127;47.780;9.606;2022-10-16T02:23:12;13.90;99.90
19930;DHT22;10127;47.780;9.606;2022-10-16T02:25:44;13.90;99.90
19930;DHT22;10127;47.780;9.606;2022-10-16T02:28:21;13.90;99.90
19930;DHT22;10127;47.780;9.606;2022-10-16T02:31:01;14.10;99.90
19930;DHT22;10127;47.780;9.606;2022-10-16T02:33:29;14.10;99.90
19930;DHT22;10127;47.780;9.606;2022-10-16T02:35:57;14.10;99.90
19930;DHT22;10127;47.780;9.606;2022-10-16T02:38:23;13.90;99.90
19930;DHT22;10127;47.780;9.606;2022-10-16T02:40:50;13.90;99.90
19930;DHT22;10127;47.780;9.606;2022-10-16T02:43:16;13.90;99.90
19930;DHT22;10127;47.780;9.606;2022-10-16T02:45:41;14.00;99.90
19930;DHT22;10127;47.780;9.606;2022-10-16T02:48:07;14.00;99.90
19930;DHT22;10127;47.780;9.606;2022-10-16T03:11:13;13.50;99.90
19930;DHT22;10127;47.780;9.606;2022-10-16T03:21:01;13.40;99.90
19930;DHT22;10127;47.780;9.606;2022-10-16T03:23:26;13.50;99.90
19930;DHT22;10127;47.780;9.606;2022-10-16T03:25:52;13.40;99.90
19930;DHT22;10127;47.780;9.606;2022-10-16T03:28:17;13.30;99.90
19930;DHT22;10127;47.780;9.606;2022-10-16T03:30:43;13.30;99.90
19930;DHT22;10127;47.780;9.606;2022-10-16T03:33:09;13.30;99.90
19930;DHT22;10127;47.780;9.606;2022-10-16T03:35:34;13.50;99.90
19930;DHT22;10127;47.780;9.606;2022-10-16T03:38:01;13.60;99.90
19930;DHT22;10127;47.780;9.606;2022-10-16T03:40:26;13.50;99.90
19930;DHT22;10127;47.780;9.606;2022-10-16T03:42:52;13.40;99.90
19930;DHT22;10127;47.780;9.606;2022-10-16T03:45:20;13.30;99.90
19930;DHT22;10127;47.780;9.606;2022-10-16T03:47:46;13.20;99.90
19930;DHT22;10127;47.780;9.606;2022-10-16T03:50:12;13.20;99.90
19930;DHT22;10127;47.780;9.606;2022-10-16T03:52:38;13.30;99.90
19930;DHT22;10127;47.780;9.606;2022-10-16T03:55:04;13.30;99.90
19930;DHT22;10127;47.780;9.606;2022-10-16T03:57:29;13.40;99.90
19930;DHT22;10127;47.780;9.606;2022-10-16T03:59:55;13.40;99.90
19930;DHT22;10127;47.780;9.606;2022-10-16T04:02:20;13.30;99.90
19930;DHT22;10127;47.780;9.606;2022-10-16T04:04:46;13.40;99.90
19930;DHT22;10127;47.780;9.606;2022-10-16T04:07:12;13.50;99.90
19930;DHT22;10127;47.780;9.606;2022-10-16T04:09:37;13.60;99.90
19930;DHT22;10127;47.780;9.606;2022-10-16T04:12:03;13.60;99.90
19930;DHT22;10127;47.780;9.606;2022-10-16T04:14:28;13.50;99.90
19930;DHT22;10127;47.780;9.606;2022-10-16T04:16:54;13.60;99.90
19930;DHT22;10127;47.780;9.606;2022-10-16T04:19:20;13.60;99.90
19930;DHT22;10127;47.780;9.606;2022-10-16T04:21:46;13.50;99.90
19930;DHT22;10127;47.780;9.606;2022-10-16T04:24:12;13.40;99.90
19930;DHT22;10127;47.780;9.606;2022-10-16T04:26:38;13.30;99.90
19930;DHT22;10127;47.780;9.606;2022-10-16T04:29:03;13.30;99.90
19930;DHT22;10127;47.780;9.606;2022-10-16T04:31:29;13.30;99.90
19930;DHT22;10127;47.780;9.606;2022-10-16T04:33:55;13.30;99.90
19930;DHT22;10127;47.780;9.606;2022-10-16T04:36:21;13.20;99.90
19930;DHT22;10127;47.780;9.606;2022-10-16T04:38:46;13.00;99.90
19930;DHT22;10127;47.780;9.606;2022-10-16T04:41:12;13.00;99.90
19930;DHT22;10127;47.780;9.606;2022-10-16T04:43:38;12.90;99.90
19930;DHT22;10127;47.780;9.606;2022-10-16T04:46:03;12.90;99.90
19930;DHT22;10127;47.780;9.606;2022-10-16T04:48:30;13.00;99.90
19930;DHT22;10127;47.780;9.606;2022-10-16T04:50:56;13.10;99.90
19930;DHT22;10127;47.780;9.606;2022-10-16T04:53:22;13.10;99.90
19930;DHT22;10127;47.780;9.606;2022-10-16T04:55:47;13.10;99.90
19930;DHT22;10127;47.780;9.606;2022-10-16T04:58:13;13.30;99.90
19930;DHT22;10127;47.780;9.606;2022-10-16T05:00:39;13.30;99.90
19930;DHT22;10127;47.780;9.606;2022-10-16T05:03:04;13.40;99.90
19930;DHT22;10127;47.780;9.606;2022-10-16T05:05:33;13.40;99.90
19930;DHT22;10127;47.780;9.606;2022-10-16T05:07:58;13.40;99.90
19930;DHT22;10127;47.780;9.606;2022-10-16T05:10:24;13.50;99.90
19930;DHT22;10127;47.780;9.606;2022-10-16T05:12:50;13.40;99.90
19930;DHT22;10127;47.780;9.606;2022-10-16T05:15:17;13.30;99.90
19930;DHT22;10127;47.780;9.606;2022-10-16T05:17:42;13.30;99.90
19930;DHT22;10127;47.780;9.606;2022-10-16T05:20:08;13.30;99.90
19930;DHT22;10127;47.780;9.606;2022-10-16T05:22:33;13.40;99.90
19930;DHT22;10127;47.780;9.606;2022-10-16T05:24:59;13.30;99.90
19930;DHT22;10127;47.780;9.606;2022-10-16T05:27:25;13.30;99.90
19930;DHT22;10127;47.780;9.606;2022-10-16T05:29:50;13.40;99.90
19930;DHT22;10127;47.780;9.606;2022-10-16T05:32:17;13.30;99.90
19930;DHT22;10127;47.780;9.606;2022-10-16T05:34:42;13.40;99.90
19930;DHT22;10127;47.780;9.606;2022-10-16T05:37:08;13.40;99.90
19930;DHT22;10127;47.780;9.606;2022-10-16T05:39:34;13.30;99.90
19930;DHT22;10127;47.780;9.606;2022-10-16T05:42:00;13.20;99.90
19930;DHT22;10127;47.780;9.606;2022-10-16T05:44:26;13.20;99.90
19930;DHT22;10127;47.780;9.606;2022-10-16T05:46:51;13.30;99.90
19930;DHT22;10127;47.780;9.606;2022-10-16T05:49:17;13.30;99.90
19930;DHT22;10127;47.780;9.606;2022-10-16T05:51:42;13.30;99.90
19930;DHT22;10127;47.780;9.606;2022-10-16T05:54:08;13.30;99.90
19930;DHT22;10127;47.780;9.606;2022-10-16T05:56:34;13.40;99.90
19930;DHT22;10127;47.780;9.606;2022-10-16T05:59:00;13.30;99.90
19930;DHT22;10127;47.780;9.606;2022-10-16T06:01:25;13.50;99.90
19930;DHT22;10127;47.780;9.606;2022-10-16T06:03:52;13.50;99.90
19930;DHT22;10127;47.780;9.606;2022-10-16T06:06:23;13.50;99.90
19930;DHT22;10127;47.780;9.606;2022-10-16T06:08:49;13.60;99.90
19930;DHT22;10127;47.780;9.606;2022-10-16T06:11:17;13.50;99.90
19930;DHT22;10127;47.780;9.606;2022-10-16T06:13:43;13.60;99.90
19930;DHT22;10127;47.780;9.606;2022-10-16T06:16:12;13.70;99.90
19930;DHT22;10127;47.780;9.606;2022-10-16T06:18:38;13.80;99.90
19930;DHT22;10127;47.780;9.606;2022-10-16T06:21:12;13.80;99.90
19930;DHT22;10127;47.780;9.606;2022-10-16T06:23:39;13.90;99.90
19930;DHT22;10127;47.780;9.606;2022-10-16T06:26:13;13.80;99.90
19930;DHT22;10127;47.780;9.606;2022-10-16T06:28:39;13.70;99.90
19930;DHT22;10127;47.780;9.606;2022-10-16T06:31:07;13.80;99.90
19930;DHT22;10127;47.780;9.606;2022-10-16T06:33:33;13.80;99.90
19930;DHT22;10127;47.780;9.606;2022-10-16T06:36:03;13.90;99.90
19930;DHT22;10127;47.780;9.606;2022-10-16T06:38:29;13.90;99.90
19930;DHT22;10127;47.780;9.606;2022-10-16T06:40:56;13.90;99.90
19930;DHT22;10127;47.780;9.606;2022-10-16T06:43:21;13.80;99.90
19930;DHT22;10127;47.780;9.606;2022-10-16T06:45:54;13.80;99.90
19930;DHT22;10127;47.780;9.606;2022-10-16T06:48:21;13.80;99.90
19930;DHT22;10127;47.780;9.606;2022-10-16T06:53:31;14.10;99.90
19930;DHT22;10127;47.780;9.606;2022-10-16T06:55:57;14.00;99.90
19930;DHT22;10127;47.780;9.606;2022-10-16T06:58:23;14.00;99.90
19930;DHT22;10127;47.780;9.606;2022-10-16T07:00:49;14.00;99.90
19930;DHT22;10127;47.780;9.606;2022-10-16T07:03:20;14.10;99.90
19930;DHT22;10127;47.780;9.606;2022-10-16T07:05:46;14.30;99.90
19930;DHT22;10127;47.780;9.606;2022-10-16T07:08:11;14.30;99.90
19930;DHT22;10127;47.780;9.606;2022-10-16T07:10:37;14.30;99.90
19930;DHT22;10127;47.780;9.606;2022-10-16T07:13:03;14.20;99.90
19930;DHT22;10127;47.780;9.606;2022-10-16T07:15:29;14.20;99.90
19930;DHT22;10127;47.780;9.606;2022-10-16T07:17:54;14.30;99.90
19930;DHT22;10127;47.780;9.606;2022-10-16T07:20:20;14.30;99.90
19930;DHT22;10127;47.780;9.606;2022-10-16T07:22:46;14.40;99.90
19930;DHT22;10127;47.780;9.606;2022-10-16T07:25:12;14.50;99.90
19930;DHT22;10127;47.780;9.606;2022-10-16T07:27:37;14.60;99.90
19930;DHT22;10127;47.780;9.606;2022-10-16T07:30:04;14.70;99.90
19930;DHT22;10127;47.780;9.606;2022-10-16T07:32:31;14.70;99.90
19930;DHT22;10127;47.780;9.606;2022-10-16T07:34:56;14.70;99.90
19930;DHT22;10127;47.780;9.606;2022-10-16T07:37:22;14.70;99.90
19930;DHT22;10127;47.780;9.606;2022-10-16T07:39:48;14.70;99.90
19930;DHT22;10127;47.780;9.606;2022-10-16T07:42:13;14.70;99.90
19930;DHT22;10127;47.780;9.606;2022-10-16T07:44:39;14.80;99.90
19930;DHT22;10127;47.780;9.606;2022-10-16T07:47:05;15.00;99.90
19930;DHT22;10127;47.780;9.606;2022-10-16T07:49:31;15.20;99.90
19930;DHT22;10127;47.780;9.606;2022-10-16T07:51:57;15.30;99.90
19930;DHT22;10127;47.780;9.606;2022-10-16T07:54:22;15.30;99.90
19930;DHT22;10127;47.780;9.606;2022-10-16T07:56:48;15.30;99.90
19930;DHT22;10127;47.780;9.606;2022-10-16T07:59:14;15.30;99.90
19930;DHT22;10127;47.780;9.606;2022-10-16T08:01:39;15.30;99.90
19930;DHT22;10127;47.780;9.606;2022-10-16T08:04:05;15.30;99.90
19930;DHT22;10127;47.780;9.606;2022-10-16T08:06:35;15.40;99.90
19930;DHT22;10127;47.780;9.606;2022-10-16T08:09:02;15.50;99.90
19930;DHT22;10127;47.780;9.606;2022-10-16T08:11:28;15.60;99.90
19930;DHT22;10127;47.780;9.606;2022-10-16T08:13:53;15.70;99.90
19930;DHT22;10127;47.780;9.606;2022-10-16T08:16:19;15.90;99.90
19930;DHT22;10127;47.780;9.606;2022-10-16T08:18:45;15.90;99.90
19930;DHT22;10127;47.780;9.606;2022-10-16T08:21:15;15.90;99.90
19930;DHT22;10127;47.780;9.606;2022-10-16T08:23:41;16.00;99.90
19930;DHT22;10127;47.780;9.606;2022-10-16T08:26:08;16.10;99.90
19930;DHT22;10127;47.780;9.606;2022-10-16T08:28:34;16.30;99.90
19930;DHT22;10127;47.780;9.606;2022-10-16T08:31:11;16.40;99.90
19930;DHT22;10127;47.780;9.606;2022-10-16T08:33:38;16.40;99.90
19930;DHT22;10127;47.780;9.606;2022-10-16T08:36:05;16.50;99.90
19930;DHT22;10127;47.780;9.606;2022-10-16T08:38:31;16.60;99.90
19930;DHT22;10127;47.780;9.606;2022-10-16T08:41:33;16.80;99.90
19930;DHT22;10127;47.780;9.606;2022-10-16T08:49:36;17.30;99.90
19930;DHT22;10127;47.780;9.606;2022-10-16T08:52:03;17.40;99.90
19930;DHT22;10127;47.780;9.606;2022-10-16T08:54:32;17.50;99.90
19930;DHT22;10127;47.780;9.606;2022-10-16T08:57:20;17.70;99.90
19930;DHT22;10127;47.780;9.606;2022-10-16T08:59:47;17.70;99.90
19930;DHT22;10127;47.780;9.606;2022-10-16T09:02:28;17.80;99.90
19930;DHT22;10127;47.780;9.606;2022-10-16T09:07:48;18.00;99.90
19930;DHT22;10127;47.780;9.606;2022-10-16T09:13:12;18.60;99.90
19930;DHT22;10127;47.780;9.606;2022-10-16T09:15:52;18.60;99.90
19930;DHT22;10127;47.780;9.606;2022-10-16T09:18:44;18.80;99.90
19930;DHT22;10127;47.780;9.606;2022-10-16T09:21:31;18.80;99.90
19930;DHT22;10127;47.780;9.606;2022-10-16T09:24:11;18.90;99.90
19930;DHT22;10127;47.780;9.606;2022-10-16T09:26:38;19.10;99.90
19930;DHT22;10127;47.780;9.606;2022-10-16T09:29:04;19.20;99.90
19930;DHT22;10127;47.780;9.606;2022-10-16T09:31:30;19.30;99.90
19930;DHT22;10127;47.780;9.606;2022-10-16T09:33:59;19.30;99.90
19930;DHT22;10127;47.780;9.606;2022-10-16T09:36:27;19.30;99.90
19930;DHT22;10127;47.780;9.606;2022-10-16T09:39:06;19.40;99.90
19930;DHT22;10127;47.780;9.606;2022-10-16T09:41:35;19.60;99.90
19930;DHT22;10127;47.780;9.606;2022-10-16T09:44:04;19.80;99.90
19930;DHT22;10127;47.780;9.606;2022-10-16T09:46:36;19.90;99.90
19930;DHT22;10127;47.780;9.606;2022-10-16T09:49:05;19.90;99.90
19930;DHT22;10127;47.780;9.606;2022-10-16T09:51:43;20.00;99.90
19930;DHT22;10127;47.780;9.606;2022-10-16T09:56:35;20.10;99.90
19930;DHT22;10127;47.780;9.606;2022-10-16T09:59:12;20.10;99.90
19930;DHT22;10127;47.780;9.606;2022-10-16T10:01:41;19.90;99.90
19930;DHT22;10127;47.780;9.606;2022-10-16T10:04:08;19.70;99.90
19930;DHT22;10127;47.780;9.606;2022-10-16T10:09:21;19.60;99.90
19930;DHT22;10127;47.780;9.606;2022-10-16T10:11:57;19.50;99.90
19930;DHT22;10127;47.780;9.606;2022-10-16T10:16:52;19.60;99.90
19930;DHT22;10127;47.780;9.606;2022-10-16T10:19:20;19.60;99.90
19930;DHT22;10127;47.780;9.606;2022-10-16T10:21:46;19.60;99.90
19930;DHT22;10127;47.780;9.606;2022-10-16T10:24:16;19.60;99.90
19930;DHT22;10127;47.780;9.606;2022-10-16T10:27:03;19.70;99.90
19930;DHT22;10127;47.780;9.606;2022-10-16T10:29:57;19.80;99.90
19930;DHT22;10127;47.780;9.606;2022-10-16T10:32:40;19.80;99.90
19930;DHT22;10127;47.780;9.606;2022-10-16T10:40:17;19.90;99.90
19930;DHT22;10127;47.780;9.606;2022-10-16T10:45:47;19.80;99.90
19930;DHT22;10127;47.780;9.606;2022-10-16T10:51:13;20.00;99.90
19930;DHT22;10127;47.780;9.606;2022-10-16T10:53:45;20.00;99.90
19930;DHT22;10127;47.780;9.606;2022-10-16T10:56:23;20.00;99.90
19930;DHT22;10127;47.780;9.606;2022-10-16T10:59:07;20.10;99.90
19930;DHT22;10127;47.780;9.606;2022-10-16T11:09:24;20.10;99.90
19930;DHT22;10127;47.780;9.606;2022-10-16T11:11:54;20.10;99.90
19930;DHT22;10127;47.780;9.606;2022-10-16T11:14:31;20.10;99.90
19930;DHT22;10127;47.780;9.606;2022-10-16T11:19:48;20.30;99.90
19930;DHT22;10127;47.780;9.606;2022-10-16T11:22:31;20.30;99.90
19930;DHT22;10127;47.780;9.606;2022-10-16T11:30:25;20.50;99.90
19930;DHT22;10127;47.780;9.606;2022-10-16T11:35:43;20.70;99.00
19930;DHT22;10127;47.780;9.606;2022-10-16T11:40:45;20.90;99.40
19930;DHT22;10127;47.780;9.606;2022-10-16T11:43:20;20.90;98.70
19930;DHT22;10127;47.780;9.606;2022-10-16T11:45:52;21.00;99.00
19930;DHT22;10127;47.780;9.606;2022-10-16T11:48:45;20.90;99.00
19930;DHT22;10127;47.780;9.606;2022-10-16T11:54:38;21.00;98.70
19930;DHT22;10127;47.780;9.606;2022-10-16T11:57:22;21.00;98.90
19930;DHT22;10127;47.780;9.606;2022-10-16T12:00:02;21.20;98.30
19930;DHT22;10127;47.780;9.606;2022-10-16T12:02:45;21.10;98.10
19930;DHT22;10127;47.780;9.606;2022-10-16T12:08:13;21.30;98.00
19930;DHT22;10127;47.780;9.606;2022-10-16T12:10:42;21.40;97.50
19930;DHT22;10127;47.780;9.606;2022-10-16T12:13:39;21.50;97.40
19930;DHT22;10127;47.780;9.606;2022-10-16T12:18:42;21.70;96.20
19930;DHT22;10127;47.780;9.606;2022-10-16T12:21:09;21.70;96.00
19930;DHT22;10127;47.780;9.606;2022-10-16T12:23:50;21.90;94.00
19930;DHT22;10127;47.780;9.606;2022-10-16T12:26:32;22.00;93.30
19930;DHT22;10127;47.780;9.606;2022-10-16T12:31:51;22.50;93.40
19930;DHT22;10127;47.780;9.606;2022-10-16T12:34:37;22.50;92.30
19930;DHT22;10127;47.780;9.606;2022-10-16T12:39:35;22.70;92.00
19930;DHT22;10127;47.780;9.606;2022-10-16T12:42:24;22.70;91.10
19930;DHT22;10127;47.780;9.606;2022-10-16T12:44:56;22.50;91.50
19930;DHT22;10127;47.780;9.606;2022-10-16T12:47:49;22.50;91.60
19930;DHT22;10127;47.780;9.606;2022-10-16T12:50:36;22.60;91.60
19930;DHT22;10127;47.780;9.606;2022-10-16T12:53:16;22.60;91.80
19930;DHT22;10127;47.780;9.606;2022-10-16T12:56:32;22.60;91.50
19930;DHT22;10127;47.780;9.606;2022-10-16T13:07:02;22.50;90.80
19930;DHT22;10127;47.780;9.606;2022-10-16T13:20:41;22.90;90.60
19930;DHT22;10127;47.780;9.606;2022-10-16T13:23:31;23.00;90.20
19930;DHT22;10127;47.780;9.606;2022-10-16T13:26:12;23.00;89.90
19930;DHT22;10127;47.780;9.606;2022-10-16T13:28:41;23.10;89.30
19930;DHT22;10127;47.780;9.606;2022-10-16T13:31:15;23.00;90.10
19930;DHT22;10127;47.780;9.606;2022-10-16T13:33:46;23.10;90.20
19930;DHT22;10127;47.780;9.606;2022-10-16T13:36:22;23.30;90.10
19930;DHT22;10127;47.780;9.606;2022-10-16T13:38:48;23.40;90.00
19930;DHT22;10127;47.780;9.606;2022-10-16T13:41:16;23.20;90.10
19930;DHT22;10127;47.780;9.606;2022-10-16T13:43:46;23.20;90.20
19930;DHT22;10127;47.780;9.606;2022-10-16T13:46:23;23.20;89.30
19930;DHT22;10127;47.780;9.606;2022-10-16T13:49:04;23.20;89.70
19930;DHT22;10127;47.780;9.606;2022-10-16T13:51:31;23.20;89.90
19930;DHT22;10127;47.780;9.606;2022-10-16T13:53:58;23.20;90.30
19930;DHT22;10127;47.780;9.606;2022-10-16T13:56:29;23.20;90.40
19930;DHT22;10127;47.780;9.606;2022-10-16T13:59:02;23.20;90.10
19930;DHT22;10127;47.780;9.606;2022-10-16T14:04:04;23.00;90.40
19930;DHT22;10127;47.780;9.606;2022-10-16T14:06:31;22.90;90.40
19930;DHT22;10127;47.780;9.606;2022-10-16T14:09:08;22.80;90.50
19930;DHT22;10127;47.780;9.606;2022-10-16T14:11:46;22.90;90.50
19930;DHT22;10127;47.780;9.606;2022-10-16T14:14:14;23.00;89.80
19930;DHT22;10127;47.780;9.606;2022-10-16T14:16:42;23.10;90.40
19930;DHT22;10127;47.780;9.606;2022-10-16T14:19:26;23.10;90.60
19930;DHT22;10127;47.780;9.606;2022-10-16T14:21:53;23.20;90.90
19930;DHT22;10127;47.780;9.606;2022-10-16T14:24:27;23.20;90.70
19930;DHT22;10127;47.780;9.606;2022-10-16T14:26:57;23.10;89.40
19930;DHT22;10127;47.780;9.606;2022-10-16T14:29:24;23.10;90.20
19930;DHT22;10127;47.780;9.606;2022-10-16T14:32:02;23.00;89.60
19930;DHT22;10127;47.780;9.606;2022-10-16T14:34:38;23.10;90.20
19930;DHT22;10127;47.780;9.606;2022-10-16T14:37:28;23.10;90.30
19930;DHT22;10127;47.780;9.606;2022-10-16T14:39:55;23.00;90.80
19930;DHT22;10127;47.780;9.606;2022-10-16T14:42:23;23.00;91.10
19930;DHT22;10127;47.780;9.606;2022-10-16T14:44:54;23.00;91.20
19930;DHT22;10127;47.780;9.606;2022-10-16T14:47:25;23.00;91.10
19930;DHT22;10127;47.780;9.606;2022-10-16T14:49:53;22.90;91.10
19930;DHT22;10127;47.780;9.606;2022-10-16T14:52:20;22.90;91.20
19930;DHT22;10127;47.780;9.606;2022-10-16T14:54:49;22.90;91.60
19930;DHT22;10127;47.780;9.606;2022-10-16T14:57:20;22.80;91.90
19930;DHT22;10127;47.780;9.606;2022-10-16T14:59:47;22.70;92.40
19930;DHT22;10127;47.780;9.606;2022-10-16T15:02:27;22.60;92.60
19930;DHT22;10127;47.780;9.606;2022-10-16T15:04:54;22.60;92.90
19930;DHT22;10127;47.780;9.606;2022-10-16T15:07:19;22.50;92.90
19930;DHT22;10127;47.780;9.606;2022-10-16T15:09:45;22.50;93.00
19930;DHT22;10127;47.780;9.606;2022-10-16T15:12:11;22.40;93.30
19930;DHT22;10127;47.780;9.606;2022-10-16T15:14:37;22.40;93.60
19930;DHT22;10127;47.780;9.606;2022-10-16T15:17:02;22.40;93.60
19930;DHT22;10127;47.780;9.606;2022-10-16T15:19:29;22.40;93.50
19930;DHT22;10127;47.780;9.606;2022-10-16T15:21:55;22.30;93.70
19930;DHT22;10127;47.780;9.606;2022-10-16T15:24:20;22.20;93.70
19930;DHT22;10127;47.780;9.606;2022-10-16T15:26:46;22.20;93.50
19930;DHT22;10127;47.780;9.606;2022-10-16T15:29:13;22.10;94.00
19930;DHT22;10127;47.780;9.606;2022-10-16T15:31:38;22.10;94.30
19930;DHT22;10127;47.780;9.606;2022-10-16T15:34:09;22.00;94.60
19930;DHT22;10127;47.780;9.606;2022-10-16T15:36:36;21.90;94.90
19930;DHT22;10127;47.780;9.606;2022-10-16T15:39:04;21.90;95.30
19930;DHT22;10127;47.780;9.606;2022-10-16T15:41:30;21.80;95.60
19930;DHT22;10127;47.780;9.606;2022-10-16T15:43:55;21.80;95.80
19930;DHT22;10127;47.780;9.606;2022-10-16T15:46:23;21.70;96.00
19930;DHT22;10127;47.780;9.606;2022-10-16T15:48:50;21.60;96.20
19930;DHT22;10127;47.780;9.606;2022-10-16T15:51:16;21.60;96.50
19930;DHT22;10127;47.780;9.606;2022-10-16T15:53:42;21.50;96.70
19930;DHT22;10127;47.780;9.606;2022-10-16T15:56:09;21.50;97.00
19930;DHT22;10127;47.780;9.606;2022-10-16T15:58:36;21.40;97.30
19930;DHT22;10127;47.780;9.606;2022-10-16T16:01:03;21.30;97.60
19930;DHT22;10127;47.780;9.606;2022-10-16T16:03:30;21.30;98.00
19930;DHT22;10127;47.780;9.606;2022-10-16T16:05:56;21.20;98.60
19930;DHT22;10127;47.780;9.606;2022-10-16T16:08:22;21.10;99.90
19930;DHT22;10127;47.780;9.606;2022-10-16T16:11:07;21.00;99.90
19930;DHT22;10127;47.780;9.606;2022-10-16T16:13:34;20.90;99.90
19930;DHT22;10127;47.780;9.606;2022-10-16T16:16:00;20.70;99.90
19930;DHT22;10127;47.780;9.606;2022-10-16T16:18:26;20.60;99.90
19930;DHT22;10127;47.780;9.606;2022-10-16T16:20:52;20.50;99.90
19930;DHT22;10127;47.780;9.606;2022-10-16T16:23:18;20.40;99.90
19930;DHT22;10127;47.780;9.606;2022-10-16T16:25:45;20.30;99.90
19930;DHT22;10127;47.780;9.606;2022-10-16T16:28:27;20.20;99.90
19930;DHT22;10127;47.780;9.606;2022-10-16T16:30:53;20.10;99.90
19930;DHT22;10127;47.780;9.606;2022-10-16T16:33:18;20.00;99.90
19930;DHT22;10127;47.780;9.606;2022-10-16T16:35:44;20.00;99.90
19930;DHT22;10127;47.780;9.606;2022-10-16T16:38:10;19.80;99.90
19930;DHT22;10127;47.780;9.606;2022-10-16T16:40:35;19.70;99.90
19930;DHT22;10127;47.780;9.606;2022-10-16T16:43:01;19.60;99.90
19930;DHT22;10127;47.780;9.606;2022-10-16T16:45:27;19.60;99.90
19930;DHT22;10127;47.780;9.606;2022-10-16T16:47:53;19.50;99.90
19930;DHT22;10127;47.780;9.606;2022-10-16T16:50:18;19.40;99.90
19930;DHT22;10127;47.780;9.606;2022-10-16T16:52:44;19.40;99.90
19930;DHT22;10127;47.780;9.606;2022-10-16T16:55:09;19.30;99.90
19930;DHT22;10127;47.780;9.606;2022-10-16T16:57:35;19.20;99.90
19930;DHT22;10127;47.780;9.606;2022-10-16T17:00:00;19.10;99.90
19930;DHT22;10127;47.780;9.606;2022-10-16T17:02:26;18.90;99.90
19930;DHT22;10127;47.780;9.606;2022-10-16T17:04:52;18.90;99.90
19930;DHT22;10127;47.780;9.606;2022-10-16T17:07:18;18.80;99.90
19930;DHT22;10127;47.780;9.606;2022-10-16T17:09:44;18.80;99.90
19930;DHT22;10127;47.780;9.606;2022-10-16T17:12:09;18.70;99.90
19930;DHT22;10127;47.780;9.606;2022-10-16T17:14:35;18.70;99.90
19930;DHT22;10127;47.780;9.606;2022-10-16T17:17:00;18.60;99.90
19930;DHT22;10127;47.780;9.606;2022-10-16T17:19:26;18.50;99.90
19930;DHT22;10127;47.780;9.606;2022-10-16T17:21:52;18.50;99.90
19930;DHT22;10127;47.780;9.606;2022-10-16T17:24:17;18.40;99.90
19930;DHT22;10127;47.780;9.606;2022-10-16T17:26:45;18.30;99.90
19930;DHT22;10127;47.780;9.606;2022-10-16T17:29:13;18.30;99.90
19930;DHT22;10127;47.780;9.606;2022-10-16T17:31:40;18.20;99.90
19930;DHT22;10127;47.780;9.606;2022-10-16T17:34:07;18.20;99.90
19930;DHT22;10127;47.780;9.606;2022-10-16T17:36:36;18.10;99.90
19930;DHT22;10127;47.780;9.606;2022-10-16T17:39:07;18.10;99.90
19930;DHT22;10127;47.780;9.606;2022-10-16T17:41:33;18.00;99.90
19930;DHT22;10127;47.780;9.606;2022-10-16T17:43:59;18.00;99.90
19930;DHT22;10127;47.780;9.606;2022-10-16T17:46:25;17.90;99.90
19930;DHT22;10127;47.780;9.606;2022-10-16T17:48:52;17.80;99.90
19930;DHT22;10127;47.780;9.606;2022-10-16T17:51:24;17.70;99.90
19930;DHT22;10127;47.780;9.606;2022-10-16T17:53:52;17.70;99.90
19930;DHT22;10127;47.780;9.606;2022-10-16T17:56:18;17.70;99.90